Marlow, United Kingdom
Current Conditions -  °F | °C
As of 9:50 AM on Saturday 20 Dec 2014 (Local Time) from EGUB Reporting Station
Broken Clouds Broken Clouds  
Wind Chill: 41°   Ceiling: 3800
Heat Index: 46°   Visibility: 6mi
Dew Point: 37°   Wind: 13mph
Humidity: 71%   Direction: 240°WSW
Pressure: 30.27"   Gusts: NA
Location:  51.57°N, 0.77°W
Report Text: EGUB 200950Z AUTO 24011KT 9999 // BKN038/// 08/03 Q1025
Loading
Personal Weather Stations






























Interactive Weather Map New forecast layout! Learn more

10-Day Weather Forecast

Advertisements
Track Severe Weather on mobile